createdAt,value
2022-11-09T18:25:41.960Z,16.91
2022-11-09T18:28:29.814Z,16.89
2022-11-09T18:31:17.172Z,16.89
2022-11-09T18:34:05.635Z,16.91
2022-11-09T18:36:54.152Z,16.91
2022-11-09T18:39:41.675Z,16.92
2022-11-09T18:42:29.102Z,16.91
2022-11-09T18:45:17.777Z,16.88
2022-11-09T18:48:05.204Z,16.91
2022-11-09T18:50:57.126Z,16.85
2022-11-09T18:53:45.655Z,16.87
2022-11-09T18:56:33.666Z,16.86
2022-11-09T18:59:20.950Z,16.82
2022-11-09T19:02:13.115Z,16.82
2022-11-09T19:05:00.557Z,16.78
2022-11-09T19:07:50.050Z,16.78
2022-11-09T19:10:38.741Z,16.81
2022-11-09T19:13:26.705Z,16.76
2022-11-09T19:16:14.854Z,16.73
2022-11-09T19:19:02.825Z,16.74
2022-11-09T19:21:54.876Z,16.71
2022-11-09T19:24:42.948Z,16.71
2022-11-09T19:27:30.677Z,16.68
2022-11-09T19:30:18.615Z,16.65
2022-11-09T19:33:07.096Z,16.67
2022-11-09T19:36:23.103Z,16.71
2022-11-09T19:39:02.376Z,16.72
2022-11-09T19:41:50.068Z,16.73
2022-11-09T19:44:37.330Z,16.75
2022-11-09T19:47:25.191Z,16.72
2022-11-09T19:50:12.310Z,16.77
2022-11-09T19:53:00.074Z,16.80
2022-11-09T19:55:47.187Z,16.74
2022-11-09T19:58:35.844Z,16.75
2022-11-09T20:01:23.362Z,16.73
2022-11-09T20:04:11.245Z,16.68
2022-11-09T20:06:58.401Z,16.73
2022-11-09T20:09:46.388Z,16.73
2022-11-09T20:12:52.077Z,16.70
2022-11-09T20:15:39.829Z,16.71
2022-11-09T20:18:26.718Z,16.69
2022-11-09T20:21:14.223Z,16.65
2022-11-09T20:24:01.569Z,16.64
2022-11-09T20:26:48.936Z,16.63
2022-11-09T20:29:36.666Z,16.62
2022-11-09T20:32:24.588Z,16.63
2022-11-09T20:35:12.637Z,16.58
2022-11-09T20:38:01.936Z,16.58
2022-11-09T20:40:58.840Z,16.55
2022-11-09T20:43:48.040Z,16.54
2022-11-09T20:46:36.847Z,16.43
2022-11-09T20:49:24.635Z,16.55
2022-11-09T20:52:12.015Z,16.54
2022-11-09T20:55:00.799Z,16.46
2022-11-09T20:57:48.576Z,16.54
2022-11-09T21:00:38.246Z,16.54
2022-11-09T21:03:28.326Z,16.52
2022-11-09T21:06:17.776Z,16.43
2022-11-09T21:09:05.938Z,16.42
2022-11-09T21:12:11.819Z,16.45
2022-11-09T21:14:59.247Z,16.49
2022-11-09T21:17:48.124Z,16.50
2022-11-09T21:20:36.016Z,16.55
2022-11-09T21:23:24.834Z,16.56
2022-11-09T21:26:30.654Z,16.51
2022-11-09T21:29:42.333Z,16.46
2022-11-09T21:32:30.967Z,16.42
2022-11-09T21:35:18.652Z,16.38
2022-11-09T21:38:05.668Z,16.34
2022-11-09T21:40:53.090Z,16.35
2022-11-09T21:43:40.271Z,16.33
2022-11-09T21:46:27.711Z,16.31
2022-11-09T21:49:14.830Z,16.24
2022-11-09T21:52:02.961Z,16.30
2022-11-09T21:54:50.253Z,16.28
2022-11-09T21:57:37.619Z,16.26
2022-11-09T22:00:24.840Z,16.25
2022-11-09T22:03:14.027Z,16.24
2022-11-09T22:06:01.231Z,16.24
2022-11-09T22:08:48.829Z,16.24
2022-11-09T22:11:54.481Z,16.23
2022-11-09T22:15:00.348Z,16.22
2022-11-09T22:17:48.639Z,16.23
2022-11-09T22:20:55.229Z,16.23
2022-11-09T22:23:42.659Z,16.21
2022-11-09T22:26:31.931Z,16.19
2022-11-09T22:29:19.199Z,16.17
2022-11-09T22:32:06.913Z,16.20
2022-11-09T22:34:54.020Z,16.19
2022-11-09T22:37:43.357Z,16.08
2022-11-09T22:40:30.588Z,16.17
2022-11-09T22:43:18.324Z,16.16
2022-11-09T22:46:14.682Z,16.16
2022-11-09T22:49:02.118Z,16.06
2022-11-09T22:51:49.072Z,16.14
2022-11-09T22:54:36.361Z,16.13
2022-11-09T22:57:23.538Z,16.02
2022-11-09T23:00:15.388Z,16.08
2022-11-09T23:03:02.317Z,16.11
2022-11-09T23:05:49.630Z,16.12
2022-11-09T23:08:38.108Z,16.11
2022-11-09T23:11:25.862Z,16.09
2022-11-09T23:14:13.201Z,16.09
2022-11-09T23:17:00.531Z,16.10
2022-11-09T23:19:47.753Z,16.09
2022-11-09T23:22:36.230Z,16.03
2022-11-09T23:25:41.803Z,16.09
2022-11-09T23:28:33.000Z,16.00
2022-11-09T23:31:24.543Z,16.04
2022-11-09T23:34:11.968Z,16.07
2022-11-09T23:36:59.311Z,16.04
2022-11-09T23:39:46.750Z,16.05
2022-11-09T23:42:33.640Z,16.04
2022-11-09T23:45:21.346Z,16.03
2022-11-09T23:48:17.049Z,15.97
2022-11-09T23:51:04.879Z,16.04
2022-11-09T23:53:52.156Z,16.04
2022-11-09T23:56:39.328Z,16.03
2022-11-09T23:59:26.519Z,16.01
